Latest Weather Observations for Mandurah

IDW60801

Issued at 1:35 pm WST Friday 22 August 2014 (issued every 30 minutes, with the page automatically refreshed every 10 minutes)

About weather observations | Map of weather stations | Latest weather observations for WA | Other Formats
Station Details ID: 009977 Name: MANDURAH Lat: -32.52 Lon: 115.71 Height: 3.0 m
Data from the previous 72 hours. | See also: Recent months at Mandurah
Date/Time
WST
Temp
°C
App
Temp
°C
Dew
Point
Rel
Hum
%
Delta-T
°C
Wind Press
QNH
hPa
Press
MSL
hPa
Rain
since 9 am
mm
Dir
 
Spd
km/h
Gust
km/h
Spd
kts
Gust
kts
22/01:30pm 18.4 16.9 9.2 55 4.8 WNW 7 9 4 5 1021.4 1021.4 0.0
22/01:00pm 18.9 17.5 9.7 55 4.9 NW 7 9 4 5 1021.7 1021.7 0.0
22/12:30pm 18.6 17.5 8.3 51 5.3 SE 4 7 2 4 1021.9 1021.9 0.0
22/12:00pm 16.7 15.4 7.6 55 4.5 SSE 4 7 2 4 1022.2 1022.2 0.0
22/11:30am 16.4 14.3 8.1 58 4.2 SSE 9 17 5 9 1022.3 1022.3 0.0
22/11:00am 16.6 13.7 8.1 57 4.3 S 13 20 7 11 1022.2 1022.2 0.0
22/10:30am 17.7 16.2 6.6 48 5.5 WSW 4 7 2 4 1022.2 1022.2 0.0
22/10:00am 16.0 14.0 7.2 56 4.3 S 7 15 4 8 1022.2 1022.2 0.0
22/09:30am 16.6 13.2 6.1 50 5.1 SSW 13 19 7 10 1021.8 1021.8 0.0
22/09:00am 16.6 13.1 5.3 47 5.4 SW 13 20 7 11 1021.5 1021.5 5.2
22/08:30am 15.7 12.2 5.3 50 4.9 SSW 13 19 7 10 1021.3 1021.3 5.2
22/08:00am 14.8 13.1 8.5 66 3.2 SSW 7 11 4 6 1020.6 1020.6 5.2
22/07:30am 15.1 11.5 8.3 64 3.4 SW 17 26 9 14 1020.1 1020.1 5.2
22/07:00am 14.5 12.1 7.1 61 3.6 SW 9 15 5 8 1019.5 1019.5 5.2
22/06:30am 14.4 11.8 6.0 57 4.0 SSW 9 17 5 9 1019.0 1019.0 5.2
22/06:00am 14.7 11.3 6.0 56 4.2 SSW 13 20 7 11 1018.7 1018.7 5.2
22/05:30am 15.0 10.4 6.6 57 4.1 SW 20 28 11 15 1018.3 1018.3 5.2
22/05:00am 15.0 10.6 7.5 61 3.7 SW 20 33 11 18 1018.0 1018.0 5.2
22/04:30am 14.9 10.2 9.1 68 3.0 SW 24 37 13 20 1017.7 1017.7 5.2
22/04:00am 13.6 11.3 10.4 81 1.7 SW 13 20 7 11 1017.4 1017.4 5.2
22/03:30am 15.0 11.4 10.4 74 2.4 SW 20 32 11 17 1017.2 1017.2 4.4
22/03:00am 13.8 10.6 11.8 88 1.1 WSW 20 33 11 18 1017.2 1017.2 4.4
22/02:38am 13.3 6.5 9.4 77 2.0 SW 35 54 19 29 1017.3 1017.3 4.0
22/02:36am 14.7 7.5 10.7 77 2.1 WSW 39 54 21 29 1017.3 1017.3 3.6
22/02:30am 14.8 11.3 10.8 77 2.1 W 20 33 11 18 1016.9 1016.9 3.6
22/02:00am 14.8 11.8 11.9 83 1.6 WSW 19 32 10 17 1016.6 1016.6 3.6
22/01:30am 13.7 9.5 12.3 91 0.8 WSW 26 37 14 20 1016.7 1016.7 3.4
22/01:16am 14.7 8.9 12.6 87 1.1 W 35 56 19 30 1016.6 1016.6 3.2
22/01:08am 14.9 8.9 10.7 76 2.2 W 33 46 18 25 1016.5 1016.5 2.8
22/01:00am 16.7 13.9 11.2 70 3.0 WSW 17 26 9 14 1016.0 1016.0 0.8
22/12:30am 17.1 10.6 8.3 56 4.5 W 32 44 17 24 1015.7 1015.7 0.8
22/12:00am 16.9 10.2 8.3 57 4.4 W 33 43 18 23 1015.4 1015.4 0.8
 
Date/Time
WST
Temp
°C
App
Temp
°C
Dew
Point
Rel
Hum
%
Delta-T
°C
Wind Press
QNH
hPa
Press
MSL
hPa
Rain
since 9 am
mm
Dir
 
Spd
km/h
Gust
km/h
Spd
kts
Gust
kts
21/11:30pm 16.9 9.8 8.1 56 4.5 W 35 48 19 26 1015.2 1015.2 0.8
21/11:00pm 16.7 10.2 8.9 60 4.0 W 33 48 18 26 1015.1 1015.1 0.8
21/10:30pm 16.0 11.6 11.8 76 2.3 WNW 26 39 14 21 1015.1 1015.1 0.8
21/10:00pm 16.8 11.8 10.9 68 3.2 W 28 35 15 19 1014.9 1014.9 0.6
21/09:30pm 16.5 12.1 11.6 73 2.7 W 26 39 14 21 1014.9 1014.9 0.6
21/09:00pm 17.2 14.2 11.9 71 2.9 W 19 28 10 15 1014.6 1014.6 0.6
21/08:30pm 17.1 13.6 12.2 73 2.7 WNW 22 28 12 15 1014.4 1014.4 0.6
21/08:00pm 17.4 12.7 10.8 65 3.5 W 26 35 14 19 1014.2 1014.2 0.6
21/07:30pm 17.4 13.0 10.5 64 3.7 WNW 24 30 13 16 1013.8 1013.8 0.6
21/07:00pm 17.5 13.4 11.3 67 3.4 WNW 24 32 13 17 1013.7 1013.7 0.6
21/06:30pm 17.6 13.3 10.7 64 3.7 W 24 32 13 17 1013.3 1013.3 0.6
21/06:00pm 17.5 13.9 10.6 64 3.7 W 20 28 11 15 1012.9 1012.9 0.6
21/05:30pm 17.5 14.7 11.3 67 3.4 W 17 24 9 13 1012.5 1012.5 0.6
21/05:00pm 17.7 14.3 11.3 66 3.5 W 20 26 11 14 1012.1 1012.1 0.6
21/04:30pm 17.8 14.8 11.8 68 3.3 W 19 26 10 14 1011.9 1011.9 0.6
21/04:00pm 17.7 15.0 12.8 73 2.7 W 19 28 10 15 1011.8 1011.8 0.6
21/03:30pm 17.3 15.6 13.6 79 2.1 W 15 24 8 13 1011.6 1011.6 0.6
21/03:00pm 16.8 17.9 16.6 99 0.1 WNW 6 9 3 5 1011.5 1011.5 0.4
21/02:30pm 16.4 17.2 16.4 100 0.0 W 7 15 4 8 1011.3 1011.3 0.4
21/02:00pm 16.0 15.9 16.0 100 0.0 WSW 11 17 6 9 1011.2 1011.2 0.4
21/01:30pm 17.6 15.5 16.1 91 0.9 W 22 32 12 17 1011.1 1011.1 0.0
21/01:00pm 18.7 13.9 14.0 74 2.7 NW 32 41 17 22 1010.8 1010.8 0.0
21/12:30pm 19.2 13.2 13.2 68 3.4 NW 37 44 20 24 1010.9 1010.9 0.0
21/12:00pm 19.1 15.5 13.1 68 3.4 NW 24 32 13 17 1010.9 1010.9 0.0
21/11:30am 18.9 15.7 13.1 69 3.3 WNW 22 30 12 16 1011.2 1011.2 0.0
21/11:00am 19.0 15.4 13.0 68 3.4 WNW 24 30 13 16 1011.4 1011.4 0.0
21/10:30am 18.5 13.8 12.0 66 3.6 WNW 28 35 15 19 1011.5 1011.5 0.0
21/10:00am 18.9 15.6 12.9 68 3.4 W 22 33 12 18 1011.3 1011.3 0.0
21/09:30am 17.9 14.6 12.8 72 2.8 W 22 39 12 21 1011.3 1011.3 0.0
21/09:00am 18.5 15.1 13.8 74 2.7 WNW 24 32 13 17 1010.9 1010.9 11.4
21/08:30am 18.0 13.4 12.2 69 3.2 W 28 37 15 20 1010.5 1010.5 11.4
21/08:00am 17.9 14.5 13.6 76 2.4 W 24 33 13 18 1010.1 1010.1 11.4
21/07:30am 17.5 12.5 14.0 80 2.0 W 33 46 18 25 1009.6 1009.6 11.4
21/07:00am 16.8 13.8 16.8 100 0.0 W 28 41 15 22 1009.2 1009.2 11.4
21/06:30am 16.9 14.3 16.9 100 0.0 W 26 37 14 20 1008.4 1008.4 11.2
21/06:00am 17.0 14.1 17.0 100 0.0 NNW 28 37 15 20 1007.9 1007.9 10.2
21/05:37am 16.9 11.8 16.9 100 0.0 NW 39 46 21 25 1007.9 1007.9 8.4
21/05:30am 16.7 10.8 16.7 100 0.0 N 43 54 23 29 1006.2 1006.2 4.4
21/05:12am 16.9 11.1 16.9 100 0.0 N 43 61 23 33 1006.4 1006.4 2.4
21/05:00am 17.3 11.3 16.5 95 0.5 N 43 52 23 28 1006.3 1006.3 1.6
21/04:30am 17.3 12.0 16.3 94 0.6 N 39 48 21 26 1007.0 1007.0 1.6
21/04:00am 17.2 11.8 17.0 99 0.1 N 41 50 22 27 1007.3 1007.3 1.6
21/03:30am 17.2 12.6 17.0 99 0.1 N 37 46 20 25 1007.7 1007.7 1.6
21/03:00am 16.8 12.2 16.2 96 0.4 N 35 46 19 25 1008.4 1008.4 1.6
21/02:30am 16.4 12.0 15.1 92 0.8 N 32 37 17 20 1008.6 1008.6 1.6
21/02:00am 16.3 12.3 15.2 93 0.6 NNE 30 35 16 19 1008.9 1008.9 1.6
21/01:30am 16.6 12.6 15.3 92 0.8 N 30 37 16 20 1009.6 1009.6 1.6
21/01:00am 15.9 12.7 15.3 96 0.3 NNE 26 32 14 17 1010.0 1010.0 1.6
21/12:30am 15.7 13.9 15.4 98 0.2 NNE 19 28 10 15 1010.4 1010.4 1.6
21/12:00am 15.9 12.8 14.4 91 0.9 NNE 24 33 13 18 1010.9 1010.9 1.6
 
Date/Time
WST
Temp
°C
App
Temp
°C
Dew
Point
Rel
Hum
%
Delta-T
°C
Wind Press
QNH
hPa
Press
MSL
hPa
Rain
since 9 am
mm
Dir
 
Spd
km/h
Gust
km/h
Spd
kts
Gust
kts
20/11:30pm 16.3 13.0 14.0 86 1.3 NNE 24 32 13 17 1011.1 1011.1 1.6
20/11:00pm 16.2 13.9 14.0 87 1.2 NNE 19 26 10 14 1011.5 1011.5 1.6
20/10:30pm 16.0 13.8 14.4 90 0.9 NNE 19 28 10 15 1011.5 1011.5 1.6
20/10:00pm 15.8 13.3 14.0 89 1.0 NNE 20 28 11 15 1012.4 1012.4 1.6
20/09:30pm 16.2 14.3 14.2 88 1.1 NNE 17 28 9 15 1012.7 1012.7 1.6
20/09:00pm 17.5 14.9 13.8 79 2.1 N 20 28 11 15 1012.8 1012.8 1.6
20/08:30pm 17.9 14.6 14.0 78 2.2 N 24 30 13 16 1012.9 1012.9 1.6
20/08:00pm 17.9 14.5 13.8 77 2.3 N 24 28 13 15 1013.0 1013.0 1.6
20/07:30pm 17.7 14.5 13.2 75 2.5 NNW 22 26 12 14 1013.2 1013.2 1.6
20/07:00pm 17.7 14.9 13.2 75 2.5 NNW 20 24 11 13 1013.1 1013.1 1.6
20/06:30pm 17.3 14.9 12.8 75 2.5 NW 17 22 9 12 1013.0 1013.0 1.6
20/06:00pm 17.6 14.1 12.1 70 3.0 NW 22 28 12 15 1013.0 1013.0 1.6
20/05:30pm 17.8 13.1 12.0 69 3.2 NW 28 33 15 18 1013.1 1013.1 1.6
20/05:00pm 17.3 15.1 14.4 83 1.7 N 19 28 10 15 1013.1 1013.1 1.6
20/04:30pm 17.3 15.0 14.6 84 1.6 N 20 26 11 14 1013.0 1013.0 1.6
20/04:00pm 17.5 15.0 14.2 81 1.9 N 20 26 11 14 1012.9 1012.9 1.6
20/03:30pm 17.4 15.0 13.9 80 2.0 N 19 22 10 12 1013.1 1013.1 1.6
20/03:00pm 17.4 14.9 14.1 81 1.9 N 20 24 11 13 1013.2 1013.2 1.6
20/02:30pm 17.5 15.0 14.2 81 1.9 N 20 26 11 14 1013.3 1013.3 1.6
20/02:00pm 17.4 14.8 13.7 79 2.1 N 20 24 11 13 1013.4 1013.4 1.6
20/01:30pm 17.3 14.8 14.0 81 1.9 N 20 24 11 13 1013.6 1013.6 1.6
20/01:00pm 16.2 14.6 16.0 99 0.1 N 19 22 10 12 1013.8 1013.8 1.6
20/12:30pm 16.3 12.4 15.5 95 0.5 N 30 35 16 19 1014.6 1014.6 1.4
20/12:00pm 16.2 13.5 14.7 91 0.9 NNW 22 26 12 14 1014.8 1014.8 1.4
20/11:30am 15.7 14.4 15.7 100 0.0 WSW 17 30 9 16 1014.9 1014.9 1.4
20/11:00am 16.4 13.0 15.9 97 0.3 N 28 35 15 19 1015.0 1015.0 0.0
20/10:30am 16.8 13.9 15.2 90 0.9 N 24 32 13 17 1015.0 1015.0 0.0
20/10:00am 16.7 14.3 15.4 92 0.8 N 22 26 12 14 1015.3 1015.3 0.0
20/09:30am 16.3 14.3 15.5 95 0.5 N 20 22 11 12 1015.5 1015.5 0.0
20/09:00am 15.5 13.7 15.5 100 0.0 NNE 19 22 10 12 1015.6 1015.6 2.0
20/08:30am 14.8 14.3 14.8 100 0.0 NE 11 13 6 7 1015.6 - 2.0
20/08:00am 14.4 14.1 14.4 100 0.0 NE 9 13 5 7 1015.5 1015.5 2.0
20/07:30am 14.2 13.8 14.2 100 0.0 NE 9 15 5 8 1015.2 - 2.0
20/07:00am 14.5 13.0 14.3 99 0.1 NE 15 17 8 9 1015.0 1015.0 2.0
20/06:30am 15.3 15.7 14.8 97 0.3 NNE 6 11 3 6 1014.6 - 2.0
20/06:00am 14.9 14.8 14.9 100 0.0 NE 9 13 5 7 1014.6 1014.6 2.0
20/05:30am 14.7 13.0 14.7 100 0.0 N 17 20 9 11 1014.8 - 2.0
20/05:00am 14.5 13.9 14.5 100 0.0 NE 11 15 6 8 1014.9 1014.9 2.0
20/04:30am 14.7 13.4 14.7 100 0.0 NNE 15 19 8 10 1015.0 - 1.8
20/04:00am 15.0 13.8 15.0 100 0.0 NNE 15 17 8 9 1015.1 1015.1 1.8
20/03:30am 15.0 15.9 15.0 100 0.0 NE 4 7 2 4 1015.1 - 1.8
20/03:00am 14.9 16.1 14.9 100 0.0 N 2 4 1 2 1015.5 1015.5 1.8
20/02:30am 15.1 12.6 15.1 100 0.0 NNW 22 28 12 15 1015.9 - 1.2
20/02:00am 15.4 15.1 15.4 100 0.0 NNE 11 17 6 9 1016.0 1016.0 0.8
20/01:30am 15.1 16.4 15.1 100 0.0 NE 2 4 1 2 1016.2 - 0.8
20/01:00am 15.0 16.6 15.0 100 0.0 CALM 0 0 0 0 1016.3 1016.3 0.8
20/12:30am 15.2 16.1 15.2 100 0.0 NE 4 6 2 3 1016.2 - 0.8
20/12:00am 15.3 16.3 15.3 100 0.0 ENE 4 7 2 4 1016.4 1016.4 0.8
 
Date/Time
WST
Temp
°C
App
Temp
°C
Dew
Point
Rel
Hum
%
Delta-T
°C
Wind Press
QNH
hPa
Press
MSL
hPa
Rain
since 9 am
mm
Dir
 
Spd
km/h
Gust
km/h
Spd
kts
Gust
kts
19/11:30pm 15.6 15.4 15.6 100 0.0 NNE 11 15 6 8 1016.4 - 0.0
19/11:00pm 14.7 14.9 14.7 100 0.0 NE 7 9 4 5 1016.5 1016.5 0.0
19/10:30pm 14.9 15.7 14.7 99 0.1 ESE 4 6 2 3 1016.7 - 0.0
19/10:00pm 14.8 15.9 14.6 99 0.1 ESE 2 4 1 2 1016.8 1016.8 0.0
19/09:30pm 14.8 15.5 14.5 98 0.2 S 4 6 2 3 1017.1 - 0.0
19/09:00pm 15.1 16.4 14.0 93 0.6 CALM 0 0 0 0 1017.0 1017.0 0.0
19/08:30pm 15.2 16.0 13.6 90 0.9 S 2 4 1 2 1016.8 - 0.0
19/08:00pm 15.3 15.7 13.8 91 0.8 SSW 4 4 2 2 1016.8 1016.8 0.0
19/07:30pm 15.6 16.0 13.8 89 1.0 SW 4 4 2 2 1016.6 - 0.0
19/07:00pm 15.9 16.5 13.2 84 1.5 SW 2 4 1 2 1016.3 1016.3 0.0
19/06:30pm 16.3 16.8 12.7 79 2.0 SW 2 4 1 2 1016.0 - 0.0
19/06:00pm 17.0 17.0 12.5 75 2.5 SW 4 9 2 5 1016.2 1016.2 0.0
19/05:30pm 17.7 16.4 12.6 72 2.8 SW 11 15 6 8 1016.0 - 0.0
19/05:00pm 18.2 17.0 12.9 71 3.0 SW 11 15 6 8 1015.9 1015.9 0.0
19/04:30pm 18.6 18.0 13.5 72 2.9 WSW 9 13 5 7 1015.9 - 0.0
19/04:00pm 18.4 17.2 12.8 70 3.1 W 11 15 6 8 1015.8 1015.8 0.0
19/03:30pm 19.2 18.1 13.2 68 3.4 WSW 11 15 6 8 1015.6 - 0.0
19/03:00pm 19.0 16.9 12.5 66 3.6 WSW 15 20 8 11 1015.5 1015.5 0.0
19/02:30pm 18.8 16.4 12.5 67 3.5 WSW 17 22 9 12 1015.4 - 0.0
19/02:00pm 19.2 17.2 12.7 66 3.6 WSW 15 22 8 12 1015.4 1015.4 0.0

Other Formats:

Comma delimited format used in spreadsheet applications
http://www.bom.gov.au/fwo/IDW60801/IDW60801.94605.axf

JavaScript Object Notation format (JSON) in row-major order
http://www.bom.gov.au/fwo/IDW60801/IDW60801.94605.json